createdAt,value
2018-05-15T00:01:52.040Z,10.70
2018-05-15T00:04:18.294Z,9.43
2018-05-15T00:06:44.575Z,9.80
2018-05-15T00:09:11.667Z,13.47
2018-05-15T00:11:37.922Z,9.53
2018-05-15T00:14:04.192Z,10.80
2018-05-15T00:16:30.443Z,9.17
2018-05-15T00:18:56.686Z,7.83
2018-05-15T00:21:22.960Z,9.53
2018-05-15T00:23:49.980Z,6.10
2018-05-15T00:26:16.237Z,8.80
2018-05-15T00:28:43.229Z,6.97
2018-05-15T00:31:09.468Z,8.13
2018-05-15T00:33:35.734Z,6.73
2018-05-15T00:36:01.983Z,6.20
2018-05-15T00:38:29.006Z,7.10
2018-05-15T00:40:55.276Z,6.73
2018-05-15T00:43:21.547Z,10.50
2018-05-15T00:45:47.831Z,12.13
2018-05-15T00:48:14.134Z,10.00
2018-05-15T00:50:41.170Z,9.50
2018-05-15T00:53:08.155Z,11.17
2018-05-15T00:55:44.135Z,12.20
2018-05-15T00:58:10.452Z,10.30
2018-05-15T01:00:36.676Z,10.60
2018-05-15T01:03:03.015Z,16.33
2018-05-15T01:05:29.323Z,17.63
2018-05-15T01:07:56.309Z,8.87
2018-05-15T01:10:22.613Z,6.70
2018-05-15T01:12:48.871Z,14.03
2018-05-15T01:15:15.135Z,9.60
2018-05-15T01:17:41.417Z,10.17
2018-05-15T01:20:07.703Z,11.87
2018-05-15T01:22:34.715Z,11.37
2018-05-15T01:25:01.014Z,6.93
2018-05-15T01:27:27.273Z,11.10
2018-05-15T01:29:54.055Z,8.87
2018-05-15T01:32:21.044Z,7.97
2018-05-15T01:34:47.341Z,9.30
2018-05-15T01:37:15.152Z,12.37
2018-05-15T01:39:41.477Z,10.10
2018-05-15T01:42:07.737Z,8.53
2018-05-15T01:44:34.021Z,12.97
2018-05-15T01:47:00.252Z,12.77
2018-05-15T01:49:26.560Z,9.73
2018-05-15T01:51:53.634Z,9.07
2018-05-15T01:54:19.930Z,11.13
2018-05-15T01:56:46.932Z,9.20
2018-05-15T01:59:13.199Z,8.40
2018-05-15T02:01:39.476Z,8.53
2018-05-15T02:04:05.710Z,11.03
2018-05-15T02:06:31.978Z,8.90
2018-05-15T02:08:59.309Z,10.90
2018-05-15T02:11:25.558Z,10.40
2018-05-15T02:13:51.839Z,9.07
2018-05-15T02:16:18.103Z,13.40
2018-05-15T02:18:44.404Z,8.70
2018-05-15T02:21:10.654Z,10.03
2018-05-15T02:23:36.886Z,11.23
2018-05-15T02:26:03.182Z,11.13
2018-05-15T02:28:29.465Z,8.97
2018-05-15T02:30:55.829Z,10.73
2018-05-15T02:33:22.842Z,19.90
2018-05-15T02:35:49.121Z,13.57
2018-05-15T02:38:15.393Z,12.30
2018-05-15T02:40:41.715Z,10.97
2018-05-15T02:43:07.980Z,15.03
2018-05-15T02:45:34.272Z,11.10
2018-05-15T02:48:00.544Z,12.27
2018-05-15T02:50:27.586Z,11.30
2018-05-15T02:52:53.809Z,11.30
2018-05-15T02:55:20.815Z,10.60
2018-05-15T02:57:47.079Z,10.67
2018-05-15T03:00:13.394Z,16.43
2018-05-15T03:02:39.655Z,10.43
2018-05-15T03:05:05.924Z,10.40
2018-05-15T03:07:32.181Z,10.10
2018-05-15T03:09:58.461Z,17.10
2018-05-15T03:12:25.472Z,14.17
2018-05-15T03:14:51.769Z,12.10
2018-05-15T03:17:18.052Z,11.23
2018-05-15T03:19:45.091Z,11.47
2018-05-15T03:22:11.352Z,10.30
2018-05-15T03:24:38.394Z,15.93
2018-05-15T03:27:05.402Z,10.63
2018-05-15T03:29:31.635Z,15.20
2018-05-15T03:31:57.890Z,15.30
2018-05-15T03:34:24.914Z,17.30
2018-05-15T03:36:51.173Z,12.73
2018-05-15T03:39:18.193Z,13.37
2018-05-15T03:41:44.548Z,13.90
2018-05-15T03:44:11.563Z,16.33
2018-05-15T03:46:37.815Z,13.37
2018-05-15T03:49:04.105Z,11.20
2018-05-15T03:51:30.382Z,15.63
2018-05-15T03:53:57.360Z,11.20
2018-05-15T03:56:23.625Z,11.33
2018-05-15T03:58:49.900Z,12.00
2018-05-15T04:01:35.603Z,20.27
2018-05-15T04:04:20.480Z,11.43
2018-05-15T04:07:05.383Z,16.27
2018-05-15T04:09:31.683Z,14.73
2018-05-15T04:11:59.205Z,12.13
2018-05-15T04:14:26.203Z,10.80
2018-05-15T04:16:52.466Z,10.60
2018-05-15T04:19:19.456Z,13.63
2018-05-15T04:21:45.736Z,15.07
2018-05-15T04:24:12.002Z,18.00
2018-05-15T04:26:38.257Z,13.63
2018-05-15T04:29:04.529Z,16.93
2018-05-15T04:31:31.525Z,16.43
2018-05-15T04:33:57.795Z,13.77
2018-05-15T04:36:24.112Z,13.90
2018-05-15T04:38:50.386Z,19.50
2018-05-15T04:41:17.408Z,14.90
2018-05-15T04:43:43.800Z,14.40
2018-05-15T04:46:10.026Z,19.23
2018-05-15T04:48:36.315Z,15.70
2018-05-15T04:51:03.417Z,18.10
2018-05-15T04:53:29.646Z,17.50
2018-05-15T04:55:55.965Z,17.70
2018-05-15T04:58:22.247Z,18.93
2018-05-15T05:00:49.279Z,13.37
2018-05-15T05:03:15.550Z,12.93
2018-05-15T05:05:42.606Z,12.13
2018-05-15T05:08:08.895Z,15.67
2018-05-15T05:10:35.229Z,15.27
2018-05-15T05:13:02.211Z,17.90
2018-05-15T05:15:28.475Z,17.67
2018-05-15T05:17:54.754Z,17.07
2018-05-15T05:20:21.756Z,13.27
2018-05-15T05:22:48.029Z,19.57
2018-05-15T05:25:15.014Z,18.50
2018-05-15T05:27:41.292Z,14.37
2018-05-15T05:30:08.248Z,14.50
2018-05-15T05:32:35.257Z,20.53
2018-05-15T05:35:01.560Z,16.80
2018-05-15T05:37:27.923Z,22.00
2018-05-15T05:39:54.182Z,18.37
2018-05-15T05:42:20.447Z,17.70
2018-05-15T05:44:46.722Z,14.83
2018-05-15T05:47:13.040Z,22.00
2018-05-15T05:49:39.293Z,17.63
2018-05-15T05:52:05.627Z,18.43
2018-05-15T05:54:31.880Z,16.93
2018-05-15T05:56:58.910Z,20.83
2018-05-15T05:59:25.194Z,13.80
2018-05-15T06:01:51.490Z,17.07
2018-05-15T06:04:18.487Z,13.00
2018-05-15T06:06:44.795Z,16.63
2018-05-15T06:09:11.053Z,23.47
2018-05-15T06:11:37.341Z,15.87
2018-05-15T06:14:03.619Z,20.43
2018-05-15T06:16:29.916Z,21.10
2018-05-15T06:18:56.182Z,37.47
2018-05-15T06:21:22.475Z,20.17
2018-05-15T06:23:48.735Z,19.03
2018-05-15T06:26:15.013Z,15.57
2018-05-15T06:28:41.274Z,16.17
2018-05-15T06:31:07.579Z,15.53
2018-05-15T06:33:33.851Z,16.67
2018-05-15T06:36:00.131Z,19.80
2018-05-15T06:38:26.469Z,22.07
2018-05-15T06:40:53.478Z,17.23
2018-05-15T06:43:21.241Z,15.10
2018-05-15T06:45:48.956Z,19.73
2018-05-15T06:48:15.250Z,19.40
2018-05-15T06:50:42.248Z,16.77
2018-05-15T06:53:08.487Z,19.50
2018-05-15T06:55:34.751Z,18.40
2018-05-15T06:58:01.019Z,16.00
2018-05-15T07:00:27.266Z,20.87
2018-05-15T07:02:53.568Z,16.60
2018-05-15T07:05:19.856Z,18.13
2018-05-15T07:07:46.202Z,16.37
2018-05-15T07:10:12.675Z,16.23
2018-05-15T07:12:38.955Z,15.83
2018-05-15T07:15:05.214Z,14.70
2018-05-15T07:17:32.258Z,15.43
2018-05-15T07:19:59.268Z,12.80
2018-05-15T07:22:25.620Z,17.50
2018-05-15T07:24:51.929Z,16.53
2018-05-15T07:27:18.309Z,18.23
2018-05-15T07:29:44.521Z,19.07
2018-05-15T07:32:10.936Z,21.20
2018-05-15T07:34:37.243Z,10.97
2018-05-15T07:37:03.675Z,9.97
2018-05-15T07:39:30.049Z,11.57
2018-05-15T07:41:57.074Z,13.10
2018-05-15T07:44:23.340Z,21.87
2018-05-15T07:46:50.343Z,15.03
2018-05-15T07:49:16.608Z,14.53
2018-05-15T07:51:43.609Z,19.50
2018-05-15T07:54:09.868Z,9.10
2018-05-15T07:56:36.880Z,11.37
2018-05-15T07:59:03.170Z,10.07
2018-05-15T08:01:30.155Z,12.50
2018-05-15T08:03:56.458Z,17.80
2018-05-15T08:06:22.748Z,10.63
2018-05-15T08:08:50.559Z,12.47
2018-05-15T08:11:16.833Z,9.27
2018-05-15T08:13:43.097Z,13.73
2018-05-15T08:16:10.127Z,12.63
2018-05-15T08:18:37.881Z,16.00
2018-05-15T08:21:04.151Z,19.13
2018-05-15T08:23:31.156Z,19.57
2018-05-15T08:25:57.431Z,12.43
2018-05-15T08:28:23.734Z,12.43
2018-05-15T08:30:50.108Z,18.43
2018-05-15T08:33:16.333Z,12.13
2018-05-15T08:35:42.602Z,15.57
2018-05-15T08:38:08.866Z,21.23
2018-05-15T08:40:35.908Z,11.30
2018-05-15T08:43:03.004Z,17.90
2018-05-15T08:45:29.466Z,16.97
2018-05-15T08:47:55.586Z,11.33
2018-05-15T08:50:21.869Z,12.70
2018-05-15T08:52:48.160Z,9.97
2018-05-15T08:55:15.922Z,15.50
2018-05-15T08:57:42.235Z,14.10
2018-05-15T09:00:08.540Z,15.73
2018-05-15T09:02:34.902Z,12.47
2018-05-15T09:05:01.189Z,10.83
2018-05-15T09:07:28.271Z,10.07
2018-05-15T09:09:54.604Z,4.33
2018-05-15T09:12:20.884Z,5.30
2018-05-15T09:14:48.063Z,7.97
2018-05-15T09:17:14.382Z,7.90
2018-05-15T09:19:40.674Z,9.73
2018-05-15T09:22:07.113Z,6.17
2018-05-15T09:24:33.407Z,8.63
2018-05-15T09:26:59.677Z,7.20
2018-05-15T09:29:26.105Z,5.83
2018-05-15T09:31:52.319Z,6.20
2018-05-15T09:34:18.646Z,3.63
2018-05-15T09:36:44.970Z,8.67
2018-05-15T09:39:11.259Z,13.13
2018-05-15T09:41:37.553Z,8.00
2018-05-15T09:44:04.102Z,7.23
2018-05-15T09:46:30.366Z,11.13
2018-05-15T09:48:56.679Z,7.73
2018-05-15T09:51:23.098Z,4.20
2018-05-15T09:53:50.504Z,8.27
2018-05-15T09:56:16.928Z,6.33
2018-05-15T09:58:43.249Z,6.67
2018-05-15T10:01:09.500Z,4.40
2018-05-15T10:03:35.799Z,5.50
2018-05-15T10:06:02.092Z,11.20
2018-05-15T10:08:28.365Z,10.87
2018-05-15T10:10:54.653Z,8.73
2018-05-15T10:13:27.905Z,3.80
2018-05-15T10:15:54.215Z,7.33
2018-05-15T10:18:20.621Z,9.53
2018-05-15T10:20:46.942Z,5.63
2018-05-15T10:23:13.284Z,5.67
2018-05-15T10:25:39.766Z,5.73
2018-05-15T10:28:06.165Z,5.80
2018-05-15T10:30:33.233Z,5.00
2018-05-15T10:32:59.654Z,11.63
2018-05-15T10:35:25.997Z,14.13
2018-05-15T10:37:52.276Z,16.67
2018-05-15T10:40:18.611Z,9.13
2018-05-15T10:42:44.935Z,11.43
2018-05-15T10:45:11.305Z,7.93
2018-05-15T10:47:38.421Z,10.30
2018-05-15T10:50:04.767Z,14.20
2018-05-15T10:52:31.073Z,13.53
2018-05-15T10:54:57.375Z,10.87
2018-05-15T10:57:23.751Z,8.40
2018-05-15T10:59:50.202Z,9.70
2018-05-15T11:02:16.554Z,7.47
2018-05-15T11:04:43.734Z,8.47
2018-05-15T11:07:10.053Z,15.37
2018-05-15T11:09:36.395Z,15.67
2018-05-15T11:12:02.985Z,17.33
2018-05-15T11:14:29.995Z,9.90
2018-05-15T11:16:56.260Z,12.53
2018-05-15T11:19:42.337Z,11.87
2018-05-15T11:22:27.399Z,12.77
2018-05-15T11:24:53.665Z,11.00
2018-05-15T11:27:20.774Z,9.97
2018-05-15T11:29:47.089Z,11.03
2018-05-15T11:32:13.380Z,10.07
2018-05-15T11:34:40.551Z,10.17
2018-05-15T11:37:06.836Z,11.83
2018-05-15T11:39:33.249Z,11.20
2018-05-15T11:41:59.636Z,9.33
2018-05-15T11:44:25.913Z,7.83
2018-05-15T11:46:52.390Z,7.30
2018-05-15T11:49:20.028Z,8.93
2018-05-15T11:51:47.085Z,7.60
2018-05-15T11:54:12.288Z,13.37
2018-05-15T11:56:38.614Z,7.70
2018-05-15T11:59:04.920Z,6.00
2018-05-15T12:01:31.217Z,7.30
2018-05-15T12:03:57.572Z,6.27
2018-05-15T12:06:23.851Z,6.47
2018-05-15T12:08:50.875Z,12.30
2018-05-15T12:11:17.203Z,5.07
2018-05-15T12:13:43.474Z,5.00
2018-05-15T12:16:10.579Z,5.30
2018-05-15T12:18:36.821Z,5.57
2018-05-15T12:21:03.146Z,5.50
2018-05-15T12:23:29.370Z,5.90
2018-05-15T12:25:55.694Z,7.00
2018-05-15T12:28:21.944Z,4.73
2018-05-15T12:30:48.979Z,5.23
2018-05-15T12:33:15.290Z,8.27
2018-05-15T12:35:41.594Z,8.47
2018-05-15T12:38:07.894Z,8.47
2018-05-15T12:40:34.960Z,11.83
2018-05-15T12:43:01.962Z,6.27
2018-05-15T12:45:28.240Z,7.30
2018-05-15T12:47:55.316Z,6.37
2018-05-15T12:50:22.291Z,9.43
2018-05-15T12:52:48.566Z,9.43
2018-05-15T12:55:15.602Z,8.97
2018-05-15T12:57:42.598Z,6.73
2018-05-15T13:00:08.846Z,6.40
2018-05-15T13:02:35.170Z,6.20
2018-05-15T13:05:01.463Z,5.80
2018-05-15T13:07:27.777Z,8.30
2018-05-15T13:09:54.777Z,7.20
2018-05-15T13:12:21.296Z,9.70
2018-05-15T13:14:47.580Z,15.03
2018-05-15T13:17:14.598Z,8.33
2018-05-15T13:19:40.846Z,6.57
2018-05-15T13:22:07.130Z,6.93
2018-05-15T13:24:33.500Z,6.80
2018-05-15T13:27:01.175Z,6.77
2018-05-15T13:29:28.195Z,8.20
2018-05-15T13:31:54.498Z,5.23
2018-05-15T13:34:20.780Z,7.57
2018-05-15T13:36:47.795Z,6.70
2018-05-15T13:39:14.095Z,5.83
2018-05-15T13:41:40.351Z,4.70
2018-05-15T13:44:06.643Z,5.17
2018-05-15T13:46:32.911Z,6.93
2018-05-15T13:48:59.202Z,5.33
2018-05-15T13:51:26.190Z,6.00
2018-05-15T13:53:52.433Z,4.90
2018-05-15T13:56:18.739Z,6.73
2018-05-15T13:58:45.027Z,9.13
2018-05-15T14:01:12.047Z,7.30
2018-05-15T14:03:38.287Z,6.50
2018-05-15T14:06:04.577Z,7.70
2018-05-15T14:08:30.831Z,5.63
2018-05-15T14:10:57.127Z,6.73
2018-05-15T14:13:23.425Z,6.60
2018-05-15T14:15:50.461Z,9.20
2018-05-15T14:18:17.471Z,15.57
2018-05-15T14:20:43.733Z,7.87
2018-05-15T14:23:10.019Z,9.10
2018-05-15T14:25:36.326Z,7.87
2018-05-15T14:28:02.607Z,9.73
2018-05-15T14:30:28.870Z,7.27
2018-05-15T14:32:55.910Z,8.03
2018-05-15T14:35:22.948Z,6.27
2018-05-15T14:37:49.243Z,8.83
2018-05-15T14:40:15.508Z,7.17
2018-05-15T14:43:00.463Z,6.80
2018-05-15T14:45:26.743Z,6.43
2018-05-15T14:47:53.063Z,6.83
2018-05-15T14:50:20.123Z,6.10
2018-05-15T14:52:46.430Z,5.47
2018-05-15T14:55:13.454Z,11.00
2018-05-15T14:57:39.735Z,6.70
2018-05-15T15:00:05.973Z,7.53
2018-05-15T15:02:32.283Z,7.03
2018-05-15T15:04:58.609Z,8.60
2018-05-15T15:07:25.606Z,7.60
2018-05-15T15:09:51.899Z,11.03
2018-05-15T15:12:18.159Z,9.20
2018-05-15T15:14:44.435Z,10.23
2018-05-15T15:17:11.469Z,7.87
2018-05-15T15:19:37.830Z,12.00
2018-05-15T15:22:04.978Z,7.87
2018-05-15T15:24:32.025Z,11.07
2018-05-15T15:26:59.072Z,9.97
2018-05-15T15:29:26.203Z,14.33
2018-05-15T15:32:05.970Z,10.30
2018-05-15T15:34:32.989Z,14.40
2018-05-15T15:36:59.428Z,9.97
2018-05-15T15:39:25.855Z,10.57
2018-05-15T15:41:52.182Z,9.73
2018-05-15T15:44:18.562Z,12.47
2018-05-15T15:46:45.004Z,10.67
2018-05-15T15:49:11.490Z,8.03
2018-05-15T15:51:37.821Z,10.77
2018-05-15T15:54:04.130Z,10.30
2018-05-15T15:56:30.525Z,10.60
2018-05-15T15:58:56.913Z,11.03
2018-05-15T16:01:23.245Z,10.20
2018-05-15T16:03:49.574Z,10.53
2018-05-15T16:06:15.939Z,14.17
2018-05-15T16:08:42.338Z,10.53
2018-05-15T16:11:08.687Z,10.60
2018-05-15T16:13:35.814Z,8.17
2018-05-15T16:16:02.227Z,8.70
2018-05-15T16:18:28.627Z,9.57
2018-05-15T16:20:54.987Z,8.73
2018-05-15T16:23:21.343Z,10.23
2018-05-15T16:25:47.704Z,10.80
2018-05-15T16:28:14.821Z,9.40
2018-05-15T16:30:41.164Z,8.40
2018-05-15T16:33:07.520Z,9.13
2018-05-15T16:35:34.592Z,8.57
2018-05-15T16:38:00.940Z,8.80
2018-05-15T16:40:27.295Z,15.40
2018-05-15T16:42:53.701Z,10.50
2018-05-15T16:45:20.063Z,10.63
2018-05-15T16:47:46.418Z,8.03
2018-05-15T16:50:12.761Z,7.63
2018-05-15T16:52:39.967Z,9.07
2018-05-15T16:55:07.045Z,8.10
2018-05-15T16:57:33.438Z,8.30
2018-05-15T16:59:59.823Z,10.33
2018-05-15T17:02:26.165Z,9.10
2018-05-15T17:04:53.246Z,8.57
2018-05-15T17:07:19.560Z,7.33
2018-05-15T17:09:45.889Z,9.23
2018-05-15T17:12:12.178Z,9.53
2018-05-15T17:14:38.543Z,8.00
2018-05-15T17:17:05.997Z,10.20
2018-05-15T17:19:32.371Z,8.70
2018-05-15T17:21:58.688Z,9.07
2018-05-15T17:24:25.098Z,13.50
2018-05-15T17:26:52.472Z,8.83
2018-05-15T17:29:18.830Z,11.10
2018-05-15T17:31:45.185Z,15.07
2018-05-15T17:34:11.589Z,10.63
2018-05-15T17:36:38.340Z,9.30
2018-05-15T17:39:05.480Z,12.27
2018-05-15T17:41:31.825Z,11.33
2018-05-15T17:43:58.106Z,9.97
2018-05-15T17:46:24.563Z,10.97
2018-05-15T17:48:50.909Z,10.90
2018-05-15T17:51:17.231Z,11.63
2018-05-15T17:53:43.600Z,9.13
2018-05-15T17:56:10.014Z,9.73
2018-05-15T17:58:36.345Z,11.60
2018-05-15T18:01:02.710Z,11.40
2018-05-15T18:03:29.802Z,13.60
2018-05-15T18:05:56.137Z,11.50
2018-05-15T18:08:22.490Z,11.90
2018-05-15T18:10:49.493Z,10.00
2018-05-15T18:13:15.831Z,14.60
2018-05-15T18:15:42.243Z,10.57
2018-05-15T18:18:09.276Z,12.50
2018-05-15T18:20:35.636Z,14.00
2018-05-15T18:23:01.970Z,14.80
2018-05-15T18:25:28.332Z,16.03
2018-05-15T18:27:54.763Z,12.23
2018-05-15T18:30:21.195Z,17.60
2018-05-15T18:32:47.523Z,19.57
2018-05-15T18:35:13.965Z,19.63
2018-05-15T18:37:41.245Z,11.07
2018-05-15T18:40:07.781Z,11.77
2018-05-15T18:42:34.329Z,13.47
2018-05-15T18:45:01.626Z,16.87
2018-05-15T18:47:28.052Z,13.10
2018-05-15T18:49:54.520Z,12.73
2018-05-15T18:52:20.893Z,13.57
2018-05-15T18:54:48.120Z,9.30
2018-05-15T18:57:14.575Z,12.00
2018-05-15T18:59:40.981Z,14.03
2018-05-15T19:02:07.382Z,11.63
2018-05-15T19:04:33.786Z,11.87
2018-05-15T19:07:00.974Z,14.37
2018-05-15T19:09:27.349Z,13.10
2018-05-15T19:11:54.462Z,13.10
2018-05-15T19:14:20.814Z,10.27
2018-05-15T19:16:47.194Z,13.67
2018-05-15T19:19:13.776Z,11.30
2018-05-15T19:21:40.233Z,14.23
2018-05-15T19:24:06.703Z,9.07
2018-05-15T19:26:33.130Z,14.00
2018-05-15T19:28:59.540Z,11.30
2018-05-15T19:31:32.136Z,10.63
2018-05-15T19:33:58.473Z,11.93
2018-05-15T19:36:30.201Z,18.80
2018-05-15T19:39:03.329Z,17.00
2018-05-15T19:41:29.670Z,11.27
2018-05-15T19:43:56.042Z,13.93
2018-05-15T19:46:22.448Z,7.43
2018-05-15T19:48:48.800Z,9.43
2018-05-15T19:51:15.206Z,9.30
2018-05-15T19:53:42.559Z,8.87
2018-05-15T19:56:08.900Z,10.03
2018-05-15T19:58:35.223Z,13.40
2018-05-15T20:01:01.536Z,10.87
2018-05-15T20:03:27.863Z,16.90
2018-05-15T20:05:54.283Z,10.77
2018-05-15T20:08:20.721Z,12.90
2018-05-15T20:10:47.819Z,10.53
2018-05-15T20:13:14.192Z,14.20
2018-05-15T20:15:41.347Z,12.07
2018-05-15T20:18:08.409Z,11.03
2018-05-15T20:20:34.854Z,10.40
2018-05-15T20:23:01.217Z,9.70
2018-05-15T20:25:27.533Z,11.73
2018-05-15T20:27:53.834Z,10.70
2018-05-15T20:30:20.253Z,11.80
2018-05-15T20:32:47.308Z,15.07
2018-05-15T20:35:13.646Z,12.50
2018-05-15T20:37:41.084Z,14.50
2018-05-15T20:40:07.486Z,9.50
2018-05-15T20:42:33.868Z,11.50
2018-05-15T20:45:00.999Z,10.50
2018-05-15T20:47:27.329Z,9.53
2018-05-15T20:49:53.688Z,16.33
2018-05-15T20:52:20.079Z,10.70
2018-05-15T20:54:46.463Z,9.17
2018-05-15T20:57:12.910Z,11.10
2018-05-15T20:59:39.216Z,8.87
2018-05-15T21:02:05.551Z,8.67
2018-05-15T21:04:31.901Z,13.03
2018-05-15T21:06:58.411Z,8.33
2018-05-15T21:09:25.161Z,8.40
2018-05-15T21:11:51.509Z,11.07
2018-05-15T21:14:17.858Z,8.87
2018-05-15T21:16:44.229Z,8.80
2018-05-15T21:19:11.661Z,9.30
2018-05-15T21:21:37.988Z,8.57
2018-05-15T21:24:04.687Z,9.93
2018-05-15T21:26:31.166Z,10.53
2018-05-15T21:28:57.496Z,8.27
2018-05-15T21:31:24.054Z,9.87
2018-05-15T21:33:50.414Z,7.27
2018-05-15T21:36:16.818Z,8.10
2018-05-15T21:38:43.180Z,9.60
2018-05-15T21:41:09.954Z,9.13
2018-05-15T21:43:36.478Z,7.63
2018-05-15T21:46:02.837Z,9.07
2018-05-15T21:48:30.068Z,9.63
2018-05-15T21:50:56.389Z,9.63
2018-05-15T21:53:22.884Z,8.00
2018-05-15T21:55:49.186Z,9.33
2018-05-15T21:58:15.594Z,12.67
2018-05-15T22:00:41.896Z,8.43
2018-05-15T22:03:08.965Z,8.23
2018-05-15T22:05:35.343Z,8.03
2018-05-15T22:08:01.889Z,8.17
2018-05-15T22:10:28.176Z,8.40
2018-05-15T22:13:13.319Z,7.17
2018-05-15T22:15:58.315Z,7.90
2018-05-15T22:18:43.194Z,11.80
2018-05-15T22:21:28.111Z,8.40
2018-05-15T22:23:55.017Z,8.03
2018-05-15T22:26:22.427Z,9.27
2018-05-15T22:28:48.930Z,10.43
2018-05-15T22:31:15.241Z,8.97
2018-05-15T22:33:41.952Z,9.80
2018-05-15T22:36:08.314Z,9.47
2018-05-15T22:38:34.691Z,8.73
2018-05-15T22:41:01.107Z,8.87
2018-05-15T22:43:28.330Z,9.47
2018-05-15T22:45:54.718Z,9.93
2018-05-15T22:48:21.206Z,12.20
2018-05-15T22:50:47.742Z,9.57
2018-05-15T22:53:14.044Z,8.20
2018-05-15T22:55:40.597Z,7.60
2018-05-15T22:58:06.899Z,12.10
2018-05-15T23:00:33.297Z,9.57
2018-05-15T23:03:00.357Z,9.57
2018-05-15T23:05:26.662Z,12.33
2018-05-15T23:07:52.978Z,10.33
2018-05-15T23:10:19.547Z,10.70
2018-05-15T23:12:46.052Z,13.30
2018-05-15T23:15:12.393Z,11.00
2018-05-15T23:17:38.719Z,9.73
2018-05-15T23:20:05.400Z,11.03
2018-05-15T23:22:41.943Z,11.10
2018-05-15T23:25:09.024Z,10.07
2018-05-15T23:27:35.332Z,10.57
2018-05-15T23:30:02.609Z,11.50
2018-05-15T23:32:28.961Z,13.90
2018-05-15T23:34:55.293Z,14.43
2018-05-15T23:37:21.694Z,14.97
2018-05-15T23:39:48.025Z,12.27
2018-05-15T23:42:14.395Z,12.97
2018-05-15T23:44:40.785Z,11.90
2018-05-15T23:47:07.161Z,12.93
2018-05-15T23:49:33.507Z,13.30
2018-05-15T23:51:59.971Z,15.50
2018-05-15T23:54:27.012Z,18.93
2018-05-15T23:56:53.519Z,14.17
2018-05-15T23:59:19.916Z,14.30
